sensor_id;sensor_type;location;lat;lon;timestamp;P1;durP1;ratioP1;P2;durP2;ratioP2
16115;SDS011;8162;47.104;15.432;2024-01-30T00:02:40;11.00;;;6.40;;
16115;SDS011;8162;47.104;15.432;2024-01-30T00:05:40;8.87;;;5.27;;
16115;SDS011;8162;47.104;15.432;2024-01-30T00:08:41;9.47;;;6.30;;
16115;SDS011;8162;47.104;15.432;2024-01-30T00:11:42;9.60;;;5.70;;
16115;SDS011;8162;47.104;15.432;2024-01-30T00:14:43;12.10;;;6.30;;
16115;SDS011;8162;47.104;15.432;2024-01-30T00:17:43;10.83;;;5.67;;
16115;SDS011;8162;47.104;15.432;2024-01-30T00:20:44;9.73;;;5.80;;
16115;SDS011;8162;47.104;15.432;2024-01-30T00:23:45;12.43;;;6.40;;
16115;SDS011;8162;47.104;15.432;2024-01-30T00:26:45;11.80;;;6.33;;
16115;SDS011;8162;47.104;15.432;2024-01-30T00:29:46;10.73;;;6.50;;
16115;SDS011;8162;47.104;15.432;2024-01-30T00:32:47;11.47;;;6.93;;
16115;SDS011;8162;47.104;15.432;2024-01-30T00:35:47;15.00;;;6.20;;
16115;SDS011;8162;47.104;15.432;2024-01-30T00:38:48;9.73;;;6.53;;
16115;SDS011;8162;47.104;15.432;2024-01-30T00:41:49;9.50;;;6.27;;
16115;SDS011;8162;47.104;15.432;2024-01-30T00:44:50;11.13;;;5.97;;
16115;SDS011;8162;47.104;15.432;2024-01-30T00:47:50;8.50;;;6.03;;
16115;SDS011;8162;47.104;15.432;2024-01-30T00:50:51;10.30;;;5.57;;
16115;SDS011;8162;47.104;15.432;2024-01-30T00:53:52;10.30;;;5.67;;
16115;SDS011;8162;47.104;15.432;2024-01-30T00:56:52;11.73;;;6.10;;
16115;SDS011;8162;47.104;15.432;2024-01-30T00:59:53;7.47;;;5.60;;
16115;SDS011;8162;47.104;15.432;2024-01-30T01:02:55;10.47;;;6.80;;
16115;SDS011;8162;47.104;15.432;2024-01-30T01:05:55;9.13;;;5.73;;
16115;SDS011;8162;47.104;15.432;2024-01-30T01:08:56;8.63;;;5.90;;
16115;SDS011;8162;47.104;15.432;2024-01-30T01:11:57;11.70;;;7.03;;
16115;SDS011;8162;47.104;15.432;2024-01-30T01:14:57;11.47;;;6.17;;
16115;SDS011;8162;47.104;15.432;2024-01-30T01:17:58;11.20;;;5.87;;
16115;SDS011;8162;47.104;15.432;2024-01-30T01:20:59;7.97;;;5.93;;
16115;SDS011;8162;47.104;15.432;2024-01-30T01:24:00;11.27;;;5.93;;
16115;SDS011;8162;47.104;15.432;2024-01-30T01:27:01;8.77;;;5.43;;
16115;SDS011;8162;47.104;15.432;2024-01-30T01:30:02;10.70;;;6.90;;
16115;SDS011;8162;47.104;15.432;2024-01-30T01:33:05;8.27;;;5.90;;
16115;SDS011;8162;47.104;15.432;2024-01-30T01:36:06;10.93;;;5.93;;
16115;SDS011;8162;47.104;15.432;2024-01-30T01:39:07;10.10;;;5.60;;
16115;SDS011;8162;47.104;15.432;2024-01-30T01:42:08;10.83;;;5.90;;
16115;SDS011;8162;47.104;15.432;2024-01-30T01:45:09;9.03;;;5.60;;
16115;SDS011;8162;47.104;15.432;2024-01-30T01:48:09;12.00;;;6.30;;
16115;SDS011;8162;47.104;15.432;2024-01-30T01:51:10;7.53;;;5.77;;
16115;SDS011;8162;47.104;15.432;2024-01-30T01:54:11;7.03;;;5.37;;
16115;SDS011;8162;47.104;15.432;2024-01-30T01:57:12;11.47;;;5.93;;
16115;SDS011;8162;47.104;15.432;2024-01-30T02:00:13;8.93;;;6.27;;
16115;SDS011;8162;47.104;15.432;2024-01-30T02:03:15;11.37;;;6.10;;
16115;SDS011;8162;47.104;15.432;2024-01-30T02:06:21;10.60;;;6.10;;
16115;SDS011;8162;47.104;15.432;2024-01-30T02:09:22;10.77;;;6.20;;
16115;SDS011;8162;47.104;15.432;2024-01-30T02:12:23;13.07;;;5.87;;
16115;SDS011;8162;47.104;15.432;2024-01-30T02:15:24;12.67;;;6.40;;
16115;SDS011;8162;47.104;15.432;2024-01-30T02:18:24;9.47;;;6.07;;
16115;SDS011;8162;47.104;15.432;2024-01-30T02:21:25;10.17;;;5.83;;
16115;SDS011;8162;47.104;15.432;2024-01-30T02:24:26;9.07;;;5.43;;
16115;SDS011;8162;47.104;15.432;2024-01-30T02:27:26;9.37;;;5.73;;
16115;SDS011;8162;47.104;15.432;2024-01-30T02:30:27;10.03;;;6.00;;
16115;SDS011;8162;47.104;15.432;2024-01-30T02:33:28;7.37;;;5.37;;
16115;SDS011;8162;47.104;15.432;2024-01-30T02:36:28;11.10;;;6.13;;
16115;SDS011;8162;47.104;15.432;2024-01-30T02:39:29;10.10;;;5.50;;
16115;SDS011;8162;47.104;15.432;2024-01-30T02:42:30;11.07;;;5.90;;
16115;SDS011;8162;47.104;15.432;2024-01-30T02:45:30;8.67;;;5.43;;
16115;SDS011;8162;47.104;15.432;2024-01-30T02:48:31;9.87;;;6.10;;
16115;SDS011;8162;47.104;15.432;2024-01-30T02:51:32;9.97;;;4.70;;
16115;SDS011;8162;47.104;15.432;2024-01-30T02:54:33;10.17;;;6.03;;
16115;SDS011;8162;47.104;15.432;2024-01-30T02:57:33;8.40;;;4.93;;
16115;SDS011;8162;47.104;15.432;2024-01-30T03:00:34;10.43;;;5.33;;
16115;SDS011;8162;47.104;15.432;2024-01-30T03:03:35;9.07;;;5.20;;
16115;SDS011;8162;47.104;15.432;2024-01-30T03:06:36;7.40;;;5.13;;
16115;SDS011;8162;47.104;15.432;2024-01-30T03:09:36;9.10;;;5.57;;
16115;SDS011;8162;47.104;15.432;2024-01-30T03:12:37;8.60;;;5.13;;
16115;SDS011;8162;47.104;15.432;2024-01-30T03:15:38;9.17;;;5.23;;
16115;SDS011;8162;47.104;15.432;2024-01-30T03:18:39;13.23;;;5.50;;
16115;SDS011;8162;47.104;15.432;2024-01-30T03:21:39;9.73;;;5.70;;
16115;SDS011;8162;47.104;15.432;2024-01-30T03:24:40;9.00;;;4.70;;
16115;SDS011;8162;47.104;15.432;2024-01-30T03:27:41;9.17;;;5.00;;
16115;SDS011;8162;47.104;15.432;2024-01-30T03:30:42;8.43;;;5.30;;
16115;SDS011;8162;47.104;15.432;2024-01-30T03:33:43;8.87;;;5.27;;
16115;SDS011;8162;47.104;15.432;2024-01-30T03:36:44;6.20;;;5.13;;
16115;SDS011;8162;47.104;15.432;2024-01-30T03:39:45;9.03;;;5.60;;
16115;SDS011;8162;47.104;15.432;2024-01-30T03:42:46;11.27;;;6.33;;
16115;SDS011;8162;47.104;15.432;2024-01-30T03:45:47;7.77;;;4.90;;
16115;SDS011;8162;47.104;15.432;2024-01-30T03:48:48;11.17;;;5.70;;
16115;SDS011;8162;47.104;15.432;2024-01-30T03:51:49;7.73;;;5.17;;
16115;SDS011;8162;47.104;15.432;2024-01-30T03:54:49;6.43;;;4.70;;
16115;SDS011;8162;47.104;15.432;2024-01-30T03:57:50;10.37;;;5.63;;
16115;SDS011;8162;47.104;15.432;2024-01-30T04:00:51;11.47;;;5.43;;
16115;SDS011;8162;47.104;15.432;2024-01-30T04:03:51;7.50;;;4.80;;
16115;SDS011;8162;47.104;15.432;2024-01-30T04:06:52;11.23;;;4.43;;
16115;SDS011;8162;47.104;15.432;2024-01-30T04:09:53;8.50;;;5.43;;
16115;SDS011;8162;47.104;15.432;2024-01-30T04:12:53;8.73;;;4.70;;
16115;SDS011;8162;47.104;15.432;2024-01-30T04:15:54;8.40;;;5.60;;
16115;SDS011;8162;47.104;15.432;2024-01-30T04:18:56;9.93;;;5.17;;
16115;SDS011;8162;47.104;15.432;2024-01-30T04:21:58;9.03;;;5.50;;
16115;SDS011;8162;47.104;15.432;2024-01-30T04:24:58;9.27;;;4.93;;
16115;SDS011;8162;47.104;15.432;2024-01-30T04:27:59;8.47;;;5.43;;
16115;SDS011;8162;47.104;15.432;2024-01-30T04:31:00;7.87;;;5.53;;
16115;SDS011;8162;47.104;15.432;2024-01-30T04:34:00;8.70;;;4.47;;
16115;SDS011;8162;47.104;15.432;2024-01-30T04:37:01;8.97;;;4.90;;
16115;SDS011;8162;47.104;15.432;2024-01-30T04:40:02;6.00;;;4.63;;
16115;SDS011;8162;47.104;15.432;2024-01-30T04:43:03;9.80;;;5.33;;
16115;SDS011;8162;47.104;15.432;2024-01-30T04:46:04;7.13;;;5.00;;
16115;SDS011;8162;47.104;15.432;2024-01-30T04:49:05;10.40;;;5.47;;
16115;SDS011;8162;47.104;15.432;2024-01-30T04:52:08;9.93;;;5.07;;
16115;SDS011;8162;47.104;15.432;2024-01-30T04:55:09;12.03;;;6.20;;
16115;SDS011;8162;47.104;15.432;2024-01-30T04:58:09;9.47;;;5.97;;
16115;SDS011;8162;47.104;15.432;2024-01-30T05:01:14;6.63;;;4.57;;
16115;SDS011;8162;47.104;15.432;2024-01-30T05:04:16;10.40;;;5.63;;
16115;SDS011;8162;47.104;15.432;2024-01-30T05:07:16;11.03;;;5.47;;
16115;SDS011;8162;47.104;15.432;2024-01-30T05:10:18;8.20;;;5.87;;
16115;SDS011;8162;47.104;15.432;2024-01-30T05:13:19;7.90;;;5.53;;
16115;SDS011;8162;47.104;15.432;2024-01-30T05:16:19;8.63;;;5.23;;
16115;SDS011;8162;47.104;15.432;2024-01-30T05:19:20;5.00;;;4.50;;
16115;SDS011;8162;47.104;15.432;2024-01-30T05:22:23;9.70;;;5.43;;
16115;SDS011;8162;47.104;15.432;2024-01-30T05:25:23;9.87;;;5.77;;
16115;SDS011;8162;47.104;15.432;2024-01-30T05:28:24;10.07;;;5.17;;
16115;SDS011;8162;47.104;15.432;2024-01-30T05:31:25;8.20;;;5.10;;
16115;SDS011;8162;47.104;15.432;2024-01-30T05:34:27;7.30;;;5.57;;
16115;SDS011;8162;47.104;15.432;2024-01-30T05:37:27;6.57;;;5.03;;
16115;SDS011;8162;47.104;15.432;2024-01-30T05:40:28;11.37;;;5.40;;
16115;SDS011;8162;47.104;15.432;2024-01-30T05:43:29;9.57;;;4.97;;
16115;SDS011;8162;47.104;15.432;2024-01-30T05:46:29;8.40;;;5.17;;
16115;SDS011;8162;47.104;15.432;2024-01-30T05:49:30;11.63;;;6.10;;
16115;SDS011;8162;47.104;15.432;2024-01-30T05:52:31;9.23;;;5.77;;
16115;SDS011;8162;47.104;15.432;2024-01-30T05:55:31;10.00;;;6.87;;
16115;SDS011;8162;47.104;15.432;2024-01-30T05:58:32;9.73;;;5.67;;
16115;SDS011;8162;47.104;15.432;2024-01-30T06:01:33;10.27;;;5.90;;
16115;SDS011;8162;47.104;15.432;2024-01-30T06:04:34;8.40;;;5.13;;
16115;SDS011;8162;47.104;15.432;2024-01-30T06:07:35;7.63;;;4.90;;
16115;SDS011;8162;47.104;15.432;2024-01-30T06:10:36;10.30;;;5.40;;
16115;SDS011;8162;47.104;15.432;2024-01-30T06:13:36;9.80;;;5.57;;
16115;SDS011;8162;47.104;15.432;2024-01-30T06:16:37;11.67;;;5.70;;
16115;SDS011;8162;47.104;15.432;2024-01-30T06:19:38;11.20;;;5.70;;
16115;SDS011;8162;47.104;15.432;2024-01-30T06:22:39;11.73;;;5.37;;
16115;SDS011;8162;47.104;15.432;2024-01-30T06:25:40;7.23;;;5.60;;
16115;SDS011;8162;47.104;15.432;2024-01-30T06:28:41;7.87;;;5.27;;
16115;SDS011;8162;47.104;15.432;2024-01-30T06:31:41;8.93;;;6.03;;
16115;SDS011;8162;47.104;15.432;2024-01-30T06:34:42;10.90;;;5.70;;
16115;SDS011;8162;47.104;15.432;2024-01-30T06:37:44;10.23;;;5.47;;
16115;SDS011;8162;47.104;15.432;2024-01-30T06:40:45;9.07;;;5.40;;
16115;SDS011;8162;47.104;15.432;2024-01-30T06:43:46;8.70;;;5.20;;
16115;SDS011;8162;47.104;15.432;2024-01-30T06:46:46;10.23;;;5.57;;
16115;SDS011;8162;47.104;15.432;2024-01-30T06:49:47;7.23;;;4.60;;
16115;SDS011;8162;47.104;15.432;2024-01-30T06:52:48;11.23;;;5.33;;
16115;SDS011;8162;47.104;15.432;2024-01-30T06:55:48;8.57;;;5.13;;
16115;SDS011;8162;47.104;15.432;2024-01-30T06:58:49;9.40;;;5.17;;
16115;SDS011;8162;47.104;15.432;2024-01-30T07:01:50;7.83;;;5.07;;
16115;SDS011;8162;47.104;15.432;2024-01-30T07:04:51;6.70;;;5.13;;
16115;SDS011;8162;47.104;15.432;2024-01-30T07:07:52;10.97;;;5.73;;
16115;SDS011;8162;47.104;15.432;2024-01-30T07:10:52;8.10;;;5.70;;
16115;SDS011;8162;47.104;15.432;2024-01-30T07:13:55;9.90;;;6.33;;
16115;SDS011;8162;47.104;15.432;2024-01-30T07:16:56;8.97;;;5.67;;
16115;SDS011;8162;47.104;15.432;2024-01-30T07:19:56;8.43;;;5.80;;
16115;SDS011;8162;47.104;15.432;2024-01-30T07:22:57;8.30;;;6.00;;
16115;SDS011;8162;47.104;15.432;2024-01-30T07:25:58;8.90;;;5.93;;
16115;SDS011;8162;47.104;15.432;2024-01-30T07:28:59;7.67;;;5.50;;
16115;SDS011;8162;47.104;15.432;2024-01-30T07:32:00;15.37;;;5.80;;
16115;SDS011;8162;47.104;15.432;2024-01-30T07:35:00;9.23;;;5.77;;
16115;SDS011;8162;47.104;15.432;2024-01-30T07:38:01;8.63;;;5.63;;
16115;SDS011;8162;47.104;15.432;2024-01-30T07:41:02;14.47;;;6.20;;
16115;SDS011;8162;47.104;15.432;2024-01-30T07:44:03;10.70;;;5.90;;
16115;SDS011;8162;47.104;15.432;2024-01-30T07:47:04;9.60;;;4.50;;
16115;SDS011;8162;47.104;15.432;2024-01-30T07:50:05;10.33;;;5.37;;
16115;SDS011;8162;47.104;15.432;2024-01-30T07:53:06;11.30;;;6.17;;
16115;SDS011;8162;47.104;15.432;2024-01-30T07:56:07;13.97;;;7.47;;
16115;SDS011;8162;47.104;15.432;2024-01-30T07:59:11;13.13;;;7.40;;
16115;SDS011;8162;47.104;15.432;2024-01-30T08:02:12;8.60;;;6.50;;
16115;SDS011;8162;47.104;15.432;2024-01-30T08:05:13;9.87;;;6.20;;
16115;SDS011;8162;47.104;15.432;2024-01-30T08:08:15;10.70;;;6.17;;
16115;SDS011;8162;47.104;15.432;2024-01-30T08:11:15;12.40;;;5.97;;
16115;SDS011;8162;47.104;15.432;2024-01-30T08:14:16;10.27;;;5.40;;
16115;SDS011;8162;47.104;15.432;2024-01-30T08:17:17;11.37;;;5.10;;
16115;SDS011;8162;47.104;15.432;2024-01-30T08:20:18;9.90;;;5.70;;
16115;SDS011;8162;47.104;15.432;2024-01-30T08:23:18;12.40;;;6.90;;
16115;SDS011;8162;47.104;15.432;2024-01-30T08:26:19;17.87;;;9.47;;
16115;SDS011;8162;47.104;15.432;2024-01-30T08:29:19;29.97;;;17.90;;
16115;SDS011;8162;47.104;15.432;2024-01-30T08:32:20;21.80;;;14.97;;
16115;SDS011;8162;47.104;15.432;2024-01-30T08:35:21;19.83;;;11.83;;
16115;SDS011;8162;47.104;15.432;2024-01-30T08:38:22;14.70;;;8.47;;
16115;SDS011;8162;47.104;15.432;2024-01-30T08:41:23;14.90;;;7.97;;
16115;SDS011;8162;47.104;15.432;2024-01-30T08:44:23;12.77;;;7.43;;
16115;SDS011;8162;47.104;15.432;2024-01-30T08:47:24;11.00;;;7.70;;
16115;SDS011;8162;47.104;15.432;2024-01-30T08:50:25;10.87;;;6.63;;
16115;SDS011;8162;47.104;15.432;2024-01-30T08:53:26;11.43;;;6.30;;
16115;SDS011;8162;47.104;15.432;2024-01-30T08:56:26;11.70;;;7.50;;
16115;SDS011;8162;47.104;15.432;2024-01-30T08:59:27;12.63;;;8.77;;
16115;SDS011;8162;47.104;15.432;2024-01-30T09:02:28;12.87;;;8.60;;
16115;SDS011;8162;47.104;15.432;2024-01-30T09:05:29;15.13;;;7.07;;
16115;SDS011;8162;47.104;15.432;2024-01-30T09:08:30;11.93;;;6.27;;
16115;SDS011;8162;47.104;15.432;2024-01-30T09:11:31;11.53;;;6.90;;
16115;SDS011;8162;47.104;15.432;2024-01-30T09:14:32;10.00;;;6.13;;
16115;SDS011;8162;47.104;15.432;2024-01-30T09:17:33;17.47;;;7.43;;
16115;SDS011;8162;47.104;15.432;2024-01-30T09:20:34;9.80;;;6.43;;
16115;SDS011;8162;47.104;15.432;2024-01-30T09:23:35;9.83;;;5.97;;
16115;SDS011;8162;47.104;15.432;2024-01-30T09:26:36;10.63;;;5.93;;
16115;SDS011;8162;47.104;15.432;2024-01-30T09:29:37;10.87;;;6.80;;
16115;SDS011;8162;47.104;15.432;2024-01-30T09:32:39;11.23;;;6.93;;
16115;SDS011;8162;47.104;15.432;2024-01-30T09:35:40;11.33;;;6.17;;
16115;SDS011;8162;47.104;15.432;2024-01-30T09:38:41;9.23;;;5.43;;
16115;SDS011;8162;47.104;15.432;2024-01-30T09:41:49;12.60;;;6.30;;
16115;SDS011;8162;47.104;15.432;2024-01-30T09:44:54;8.80;;;5.40;;
16115;SDS011;8162;47.104;15.432;2024-01-30T09:47:55;9.20;;;6.03;;
16115;SDS011;8162;47.104;15.432;2024-01-30T09:50:57;8.57;;;5.40;;
16115;SDS011;8162;47.104;15.432;2024-01-30T09:53:58;11.30;;;5.70;;
16115;SDS011;8162;47.104;15.432;2024-01-30T09:56:58;10.10;;;5.67;;
16115;SDS011;8162;47.104;15.432;2024-01-30T09:59:59;10.20;;;6.17;;
16115;SDS011;8162;47.104;15.432;2024-01-30T10:03:00;10.00;;;5.70;;
16115;SDS011;8162;47.104;15.432;2024-01-30T10:06:01;17.90;;;10.43;;
16115;SDS011;8162;47.104;15.432;2024-01-30T10:09:02;17.33;;;10.63;;
16115;SDS011;8162;47.104;15.432;2024-01-30T10:12:03;17.27;;;10.83;;
16115;SDS011;8162;47.104;15.432;2024-01-30T10:15:06;18.40;;;9.53;;
16115;SDS011;8162;47.104;15.432;2024-01-30T10:18:08;17.57;;;11.30;;
16115;SDS011;8162;47.104;15.432;2024-01-30T10:21:10;17.43;;;10.50;;
16115;SDS011;8162;47.104;15.432;2024-01-30T10:24:11;17.97;;;11.03;;
16115;SDS011;8162;47.104;15.432;2024-01-30T10:27:15;24.00;;;11.90;;
16115;SDS011;8162;47.104;15.432;2024-01-30T10:30:16;14.87;;;10.87;;
16115;SDS011;8162;47.104;15.432;2024-01-30T10:33:17;21.07;;;12.03;;
16115;SDS011;8162;47.104;15.432;2024-01-30T10:36:18;23.20;;;12.53;;
16115;SDS011;8162;47.104;15.432;2024-01-30T10:39:19;21.23;;;13.20;;
16115;SDS011;8162;47.104;15.432;2024-01-30T10:42:22;30.67;;;13.63;;
16115;SDS011;8162;47.104;15.432;2024-01-30T10:45:27;20.37;;;13.07;;
16115;SDS011;8162;47.104;15.432;2024-01-30T10:48:30;22.97;;;13.13;;
16115;SDS011;8162;47.104;15.432;2024-01-30T10:51:33;20.20;;;13.10;;
16115;SDS011;8162;47.104;15.432;2024-01-30T10:54:35;21.67;;;13.77;;
16115;SDS011;8162;47.104;15.432;2024-01-30T10:57:37;21.83;;;13.30;;
16115;SDS011;8162;47.104;15.432;2024-01-30T11:00:38;24.50;;;13.63;;
16115;SDS011;8162;47.104;15.432;2024-01-30T11:03:39;24.07;;;14.27;;
16115;SDS011;8162;47.104;15.432;2024-01-30T11:06:43;18.17;;;13.30;;
16115;SDS011;8162;47.104;15.432;2024-01-30T11:09:50;18.17;;;13.33;;
16115;SDS011;8162;47.104;15.432;2024-01-30T11:12:51;22.73;;;14.50;;
16115;SDS011;8162;47.104;15.432;2024-01-30T11:15:52;19.73;;;13.40;;
16115;SDS011;8162;47.104;15.432;2024-01-30T11:18:53;20.80;;;13.93;;
16115;SDS011;8162;47.104;15.432;2024-01-30T11:21:54;20.37;;;13.80;;
16115;SDS011;8162;47.104;15.432;2024-01-30T11:24:56;22.03;;;13.57;;
16115;SDS011;8162;47.104;15.432;2024-01-30T11:27:58;21.30;;;13.97;;
16115;SDS011;8162;47.104;15.432;2024-01-30T11:31:03;23.70;;;14.70;;
16115;SDS011;8162;47.104;15.432;2024-01-30T11:34:04;20.97;;;13.40;;
16115;SDS011;8162;47.104;15.432;2024-01-30T11:37:07;24.93;;;13.63;;
16115;SDS011;8162;47.104;15.432;2024-01-30T11:40:10;20.27;;;13.00;;
16115;SDS011;8162;47.104;15.432;2024-01-30T11:43:11;22.60;;;13.77;;
16115;SDS011;8162;47.104;15.432;2024-01-30T11:46:13;22.20;;;14.00;;
16115;SDS011;8162;47.104;15.432;2024-01-30T11:49:14;20.80;;;13.13;;
16115;SDS011;8162;47.104;15.432;2024-01-30T11:52:15;20.00;;;13.50;;
16115;SDS011;8162;47.104;15.432;2024-01-30T11:55:16;26.47;;;13.10;;
16115;SDS011;8162;47.104;15.432;2024-01-30T11:58:18;21.47;;;13.47;;
16115;SDS011;8162;47.104;15.432;2024-01-30T12:01:19;18.27;;;13.23;;
16115;SDS011;8162;47.104;15.432;2024-01-30T12:04:19;24.90;;;12.67;;
16115;SDS011;8162;47.104;15.432;2024-01-30T12:07:20;17.20;;;12.00;;
16115;SDS011;8162;47.104;15.432;2024-01-30T12:10:22;22.47;;;13.20;;
16115;SDS011;8162;47.104;15.432;2024-01-30T12:13:23;18.73;;;12.83;;
16115;SDS011;8162;47.104;15.432;2024-01-30T12:16:25;18.43;;;12.10;;
16115;SDS011;8162;47.104;15.432;2024-01-30T12:19:26;18.93;;;11.63;;
16115;SDS011;8162;47.104;15.432;2024-01-30T12:22:27;16.37;;;12.87;;
16115;SDS011;8162;47.104;15.432;2024-01-30T12:25:27;18.67;;;12.20;;
16115;SDS011;8162;47.104;15.432;2024-01-30T12:28:28;17.90;;;12.33;;
16115;SDS011;8162;47.104;15.432;2024-01-30T12:31:31;16.50;;;11.87;;
16115;SDS011;8162;47.104;15.432;2024-01-30T12:34:32;15.77;;;10.83;;
16115;SDS011;8162;47.104;15.432;2024-01-30T12:37:33;19.47;;;11.43;;
16115;SDS011;8162;47.104;15.432;2024-01-30T12:40:33;18.70;;;11.50;;
16115;SDS011;8162;47.104;15.432;2024-01-30T12:43:34;16.23;;;10.27;;
16115;SDS011;8162;47.104;15.432;2024-01-30T12:46:35;16.70;;;11.13;;
16115;SDS011;8162;47.104;15.432;2024-01-30T12:49:35;16.93;;;10.47;;
16115;SDS011;8162;47.104;15.432;2024-01-30T12:52:36;18.77;;;11.53;;
16115;SDS011;8162;47.104;15.432;2024-01-30T12:55:37;17.83;;;11.13;;
16115;SDS011;8162;47.104;15.432;2024-01-30T12:58:38;15.33;;;10.83;;
16115;SDS011;8162;47.104;15.432;2024-01-30T13:01:39;14.97;;;10.07;;
16115;SDS011;8162;47.104;15.432;2024-01-30T13:04:39;15.63;;;10.57;;
16115;SDS011;8162;47.104;15.432;2024-01-30T13:07:40;17.93;;;10.73;;
16115;SDS011;8162;47.104;15.432;2024-01-30T13:10:41;19.00;;;10.83;;
16115;SDS011;8162;47.104;15.432;2024-01-30T13:13:42;17.30;;;10.80;;
16115;SDS011;8162;47.104;15.432;2024-01-30T13:16:42;17.60;;;10.03;;
16115;SDS011;8162;47.104;15.432;2024-01-30T13:19:43;18.57;;;10.90;;
16115;SDS011;8162;47.104;15.432;2024-01-30T13:22:44;15.53;;;10.20;;
16115;SDS011;8162;47.104;15.432;2024-01-30T13:25:45;15.40;;;10.10;;
16115;SDS011;8162;47.104;15.432;2024-01-30T13:28:46;13.70;;;9.63;;
16115;SDS011;8162;47.104;15.432;2024-01-30T13:31:47;18.93;;;10.33;;
16115;SDS011;8162;47.104;15.432;2024-01-30T13:34:48;14.13;;;10.00;;
16115;SDS011;8162;47.104;15.432;2024-01-30T13:37:49;15.47;;;10.10;;
16115;SDS011;8162;47.104;15.432;2024-01-30T13:40:50;12.40;;;9.23;;
16115;SDS011;8162;47.104;15.432;2024-01-30T13:43:50;14.87;;;9.47;;
16115;SDS011;8162;47.104;15.432;2024-01-30T13:46:51;13.03;;;9.73;;
16115;SDS011;8162;47.104;15.432;2024-01-30T13:49:52;15.37;;;9.50;;
16115;SDS011;8162;47.104;15.432;2024-01-30T13:52:53;15.30;;;9.57;;
16115;SDS011;8162;47.104;15.432;2024-01-30T13:55:54;13.40;;;9.10;;
16115;SDS011;8162;47.104;15.432;2024-01-30T13:58:55;13.20;;;10.37;;
16115;SDS011;8162;47.104;15.432;2024-01-30T14:01:57;12.93;;;9.37;;
16115;SDS011;8162;47.104;15.432;2024-01-30T14:04:58;13.03;;;9.50;;
16115;SDS011;8162;47.104;15.432;2024-01-30T14:07:59;12.95;;;10.20;;
16115;SDS011;8162;47.104;15.432;2024-01-30T14:11:01;14.43;;;10.70;;
16115;SDS011;8162;47.104;15.432;2024-01-30T14:14:02;13.83;;;9.90;;
16115;SDS011;8162;47.104;15.432;2024-01-30T14:17:03;13.73;;;10.27;;
16115;SDS011;8162;47.104;15.432;2024-01-30T14:20:07;10.93;;;8.90;;
16115;SDS011;8162;47.104;15.432;2024-01-30T14:23:08;11.40;;;9.20;;
16115;SDS011;8162;47.104;15.432;2024-01-30T14:26:09;12.57;;;9.70;;
16115;SDS011;8162;47.104;15.432;2024-01-30T14:29:10;14.10;;;9.83;;
16115;SDS011;8162;47.104;15.432;2024-01-30T14:32:11;15.07;;;10.10;;
16115;SDS011;8162;47.104;15.432;2024-01-30T14:35:12;13.37;;;10.50;;
16115;SDS011;8162;47.104;15.432;2024-01-30T14:38:13;10.90;;;9.27;;
16115;SDS011;8162;47.104;15.432;2024-01-30T14:41:14;13.23;;;9.73;;
16115;SDS011;8162;47.104;15.432;2024-01-30T14:44:15;12.03;;;9.30;;
16115;SDS011;8162;47.104;15.432;2024-01-30T14:47:16;13.17;;;9.50;;
16115;SDS011;8162;47.104;15.432;2024-01-30T14:50:17;13.03;;;10.80;;
16115;SDS011;8162;47.104;15.432;2024-01-30T14:53:19;13.50;;;9.83;;
16115;SDS011;8162;47.104;15.432;2024-01-30T14:56:20;12.60;;;9.97;;
16115;SDS011;8162;47.104;15.432;2024-01-30T14:59:21;12.73;;;9.23;;
16115;SDS011;8162;47.104;15.432;2024-01-30T15:02:22;10.90;;;9.00;;
16115;SDS011;8162;47.104;15.432;2024-01-30T15:05:23;14.03;;;10.57;;
16115;SDS011;8162;47.104;15.432;2024-01-30T15:08:24;15.10;;;10.50;;
16115;SDS011;8162;47.104;15.432;2024-01-30T15:11:25;11.93;;;10.23;;
16115;SDS011;8162;47.104;15.432;2024-01-30T15:14:26;11.40;;;9.93;;
16115;SDS011;8162;47.104;15.432;2024-01-30T15:17:27;15.53;;;9.73;;
16115;SDS011;8162;47.104;15.432;2024-01-30T15:20:28;13.17;;;9.07;;
16115;SDS011;8162;47.104;15.432;2024-01-30T15:23:31;14.97;;;9.43;;
16115;SDS011;8162;47.104;15.432;2024-01-30T15:26:32;11.13;;;9.20;;
16115;SDS011;8162;47.104;15.432;2024-01-30T15:29:33;11.40;;;8.50;;
16115;SDS011;8162;47.104;15.432;2024-01-30T15:32:34;14.47;;;9.20;;
16115;SDS011;8162;47.104;15.432;2024-01-30T15:35:35;10.63;;;8.27;;
16115;SDS011;8162;47.104;15.432;2024-01-30T15:38:37;14.17;;;9.17;;
16115;SDS011;8162;47.104;15.432;2024-01-30T15:41:38;11.53;;;9.47;;
16115;SDS011;8162;47.104;15.432;2024-01-30T15:44:39;13.30;;;9.03;;
16115;SDS011;8162;47.104;15.432;2024-01-30T15:47:40;12.83;;;10.00;;
16115;SDS011;8162;47.104;15.432;2024-01-30T15:50:41;17.67;;;10.17;;
16115;SDS011;8162;47.104;15.432;2024-01-30T15:53:42;17.83;;;9.33;;
16115;SDS011;8162;47.104;15.432;2024-01-30T15:56:43;13.20;;;9.50;;
16115;SDS011;8162;47.104;15.432;2024-01-30T15:59:44;12.13;;;9.37;;
16115;SDS011;8162;47.104;15.432;2024-01-30T16:02:45;13.80;;;8.70;;
16115;SDS011;8162;47.104;15.432;2024-01-30T16:05:46;12.63;;;9.70;;
16115;SDS011;8162;47.104;15.432;2024-01-30T16:08:49;15.03;;;9.63;;
16115;SDS011;8162;47.104;15.432;2024-01-30T16:11:50;11.40;;;9.13;;
16115;SDS011;8162;47.104;15.432;2024-01-30T16:14:50;12.67;;;8.93;;
16115;SDS011;8162;47.104;15.432;2024-01-30T16:17:51;13.60;;;9.53;;
16115;SDS011;8162;47.104;15.432;2024-01-30T16:20:52;15.90;;;9.90;;
16115;SDS011;8162;47.104;15.432;2024-01-30T16:23:53;15.57;;;9.53;;
16115;SDS011;8162;47.104;15.432;2024-01-30T16:26:54;13.60;;;9.43;;
16115;SDS011;8162;47.104;15.432;2024-01-30T16:29:57;15.27;;;9.93;;
16115;SDS011;8162;47.104;15.432;2024-01-30T16:32:58;15.03;;;9.77;;
16115;SDS011;8162;47.104;15.432;2024-01-30T16:35:59;16.80;;;10.43;;
16115;SDS011;8162;47.104;15.432;2024-01-30T16:39:00;12.87;;;8.87;;
16115;SDS011;8162;47.104;15.432;2024-01-30T16:42:03;16.17;;;10.43;;
16115;SDS011;8162;47.104;15.432;2024-01-30T16:45:04;15.60;;;10.33;;
16115;SDS011;8162;47.104;15.432;2024-01-30T16:48:05;16.03;;;10.47;;
16115;SDS011;8162;47.104;15.432;2024-01-30T16:51:06;13.43;;;9.60;;
16115;SDS011;8162;47.104;15.432;2024-01-30T16:54:07;15.40;;;9.90;;
16115;SDS011;8162;47.104;15.432;2024-01-30T16:57:07;13.47;;;9.53;;
16115;SDS011;8162;47.104;15.432;2024-01-30T17:00:08;13.57;;;9.60;;
16115;SDS011;8162;47.104;15.432;2024-01-30T17:03:10;14.17;;;10.33;;
16115;SDS011;8162;47.104;15.432;2024-01-30T17:06:11;15.53;;;9.70;;
16115;SDS011;8162;47.104;15.432;2024-01-30T17:09:12;14.17;;;9.90;;
16115;SDS011;8162;47.104;15.432;2024-01-30T17:12:14;15.43;;;9.57;;
16115;SDS011;8162;47.104;15.432;2024-01-30T17:15:15;15.20;;;9.77;;
16115;SDS011;8162;47.104;15.432;2024-01-30T17:18:16;13.73;;;9.47;;
16115;SDS011;8162;47.104;15.432;2024-01-30T17:21:19;15.70;;;10.00;;
16115;SDS011;8162;47.104;15.432;2024-01-30T17:24:20;17.90;;;9.83;;
16115;SDS011;8162;47.104;15.432;2024-01-30T17:27:21;14.03;;;10.20;;
16115;SDS011;8162;47.104;15.432;2024-01-30T17:30:21;12.60;;;9.93;;
16115;SDS011;8162;47.104;15.432;2024-01-30T17:33:23;15.13;;;10.23;;
16115;SDS011;8162;47.104;15.432;2024-01-30T17:36:24;16.43;;;10.43;;
16115;SDS011;8162;47.104;15.432;2024-01-30T17:39:24;16.03;;;10.80;;
16115;SDS011;8162;47.104;15.432;2024-01-30T17:42:25;13.50;;;9.63;;
16115;SDS011;8162;47.104;15.432;2024-01-30T17:45:26;15.77;;;11.43;;
16115;SDS011;8162;47.104;15.432;2024-01-30T17:48:27;15.60;;;10.23;;
16115;SDS011;8162;47.104;15.432;2024-01-30T17:51:27;13.93;;;10.80;;
16115;SDS011;8162;47.104;15.432;2024-01-30T17:54:28;16.83;;;11.13;;
16115;SDS011;8162;47.104;15.432;2024-01-30T17:57:29;16.20;;;11.77;;